createdAt,value
2018-10-21T00:00:14.265Z,8.10
2018-10-21T00:02:47.252Z,8.20
2018-10-21T00:05:14.497Z,8.30
2018-10-21T00:07:47.548Z,8.30
2018-10-21T00:10:14.780Z,8.40
2018-10-21T00:12:42.009Z,8.50
2018-10-21T00:15:10.264Z,8.50
2018-10-21T00:17:37.408Z,8.60
2018-10-21T00:20:04.892Z,8.60
2018-10-21T00:22:32.676Z,8.70
2018-10-21T00:24:59.891Z,8.80
2018-10-21T00:27:32.797Z,8.90
2018-10-21T00:30:05.833Z,9.00
2018-10-21T00:32:38.786Z,9.00
2018-10-21T00:35:06.863Z,8.30
2018-10-21T00:37:34.112Z,9.00
2018-10-21T00:40:01.345Z,9.00
2018-10-21T00:42:28.559Z,9.00
2018-10-21T00:45:02.175Z,8.90
2018-10-21T00:47:29.384Z,8.90
2018-10-21T00:49:56.600Z,9.00
2018-10-21T00:52:29.590Z,8.90
2018-10-21T00:55:02.892Z,8.90
2018-10-21T00:57:30.092Z,8.80
2018-10-21T00:59:57.307Z,8.80
2018-10-21T01:02:24.552Z,8.80
2018-10-21T01:04:51.759Z,8.80
2018-10-21T01:07:18.992Z,8.70
2018-10-21T01:09:46.240Z,8.60
2018-10-21T01:12:13.453Z,8.50
2018-10-21T01:14:40.712Z,8.30
2018-10-21T01:17:07.929Z,8.30
2018-10-21T01:19:35.160Z,8.30
2018-10-21T01:22:02.400Z,8.20
2018-10-21T01:24:29.620Z,8.10
2018-10-21T01:26:56.877Z,8.00
2018-10-21T01:29:24.073Z,7.90
2018-10-21T01:31:51.304Z,7.90
2018-10-21T01:34:18.531Z,8.00
2018-10-21T01:39:27.473Z,8.20
2018-10-21T01:42:00.328Z,8.20
2018-10-21T01:47:00.418Z,8.20
2018-10-21T01:49:33.278Z,8.30
2018-10-21T01:52:00.477Z,8.30
2018-10-21T01:57:07.022Z,8.50
2018-10-21T01:59:34.236Z,8.60
2018-10-21T02:02:01.436Z,8.60
2018-10-21T02:04:29.643Z,8.60
2018-10-21T02:06:56.872Z,8.60
2018-10-21T02:12:02.724Z,8.70
2018-10-21T02:17:03.093Z,8.80
2018-10-21T02:19:30.328Z,8.90
2018-10-21T02:24:36.416Z,8.90
2018-10-21T02:27:03.974Z,9.00
2018-10-21T02:29:31.179Z,8.90
2018-10-21T02:31:58.388Z,9.00
2018-10-21T02:34:25.597Z,9.00
2018-10-21T02:36:59.142Z,9.00
2018-10-21T02:39:26.410Z,9.00
2018-10-21T02:41:55.136Z,9.10
2018-10-21T02:44:22.904Z,9.10
2018-10-21T02:46:52.104Z,9.20
2018-10-21T02:49:20.052Z,9.20
2018-10-21T02:51:58.776Z,9.20
2018-10-21T02:54:27.261Z,9.20
2018-10-21T02:57:00.465Z,9.20
2018-10-21T02:59:27.639Z,9.20
2018-10-21T03:01:54.918Z,9.30
2018-10-21T03:04:22.314Z,9.20
2018-10-21T03:06:49.770Z,9.10
2018-10-21T03:09:22.935Z,9.10
2018-10-21T03:14:28.909Z,9.20
2018-10-21T03:16:56.243Z,9.20
2018-10-21T03:19:23.500Z,9.20
2018-10-21T03:21:50.724Z,9.20
2018-10-21T03:24:18.144Z,9.20
2018-10-21T03:26:46.020Z,9.10
2018-10-21T03:29:19.072Z,9.00
2018-10-21T03:31:46.292Z,9.00
2018-10-21T03:36:46.414Z,9.00
2018-10-21T03:39:13.613Z,9.00
2018-10-21T03:41:40.837Z,9.00
2018-10-21T03:44:08.084Z,9.00
2018-10-21T03:46:35.282Z,9.00
2018-10-21T03:49:02.484Z,9.00
2018-10-21T03:51:29.700Z,9.10
2018-10-21T03:53:56.924Z,9.10
2018-10-21T03:56:24.183Z,9.00
2018-10-21T03:58:51.805Z,9.00
2018-10-21T04:01:19.066Z,9.00
2018-10-21T04:03:46.277Z,10.80
2018-10-21T04:06:14.524Z,9.00
2018-10-21T04:08:41.725Z,9.00
2018-10-21T04:11:08.973Z,8.90
2018-10-21T04:16:09.329Z,9.00
2018-10-21T04:18:36.473Z,8.90
2018-10-21T04:21:09.586Z,8.90
2018-10-21T04:23:36.789Z,9.00
2018-10-21T04:26:04.067Z,9.00
2018-10-21T04:28:36.916Z,9.00
2018-10-21T04:31:04.336Z,9.00
2018-10-21T04:33:46.337Z,9.10
2018-10-21T04:40:06.143Z,9.00
2018-10-21T04:45:07.163Z,8.80
2018-10-21T04:50:13.923Z,8.80
2018-10-21T04:52:41.152Z,8.70
2018-10-21T04:55:11.671Z,8.70
2018-10-21T04:57:40.020Z,8.80
2018-10-21T05:00:11.712Z,8.80
2018-10-21T05:02:38.979Z,8.60
2018-10-21T05:07:40.438Z,8.70
2018-10-21T05:13:05.347Z,8.80
2018-10-21T05:15:33.578Z,8.70
2018-10-21T05:18:00.921Z,8.70
2018-10-21T05:20:28.152Z,8.70
2018-10-21T05:22:55.629Z,8.70
2018-10-21T05:25:22.905Z,8.80
2018-10-21T05:27:55.843Z,8.80
2018-10-21T05:30:23.086Z,8.80
2018-10-21T05:32:56.038Z,8.80
2018-10-21T05:35:23.295Z,8.80
2018-10-21T05:37:50.558Z,8.80
2018-10-21T05:40:19.012Z,8.80
2018-10-21T05:42:46.548Z,8.80
2018-10-21T05:45:13.792Z,8.80
2018-10-21T05:47:41.391Z,8.90
2018-10-21T05:50:09.787Z,8.90
2018-10-21T05:55:16.227Z,9.10
2018-10-21T05:57:43.466Z,8.90
2018-10-21T06:00:13.214Z,8.80
2018-10-21T06:02:40.488Z,8.70
2018-10-21T06:05:19.492Z,8.70
2018-10-21T06:07:52.416Z,8.60
2018-10-21T06:10:19.688Z,8.50
2018-10-21T06:12:46.896Z,8.60
2018-10-21T06:15:14.124Z,8.70
2018-10-21T06:17:41.356Z,8.80
2018-10-21T06:20:23.200Z,8.80
2018-10-21T06:22:50.637Z,8.90
2018-10-21T06:25:24.775Z,9.00
2018-10-21T06:27:52.022Z,9.00
2018-10-21T06:30:19.257Z,9.10
2018-10-21T06:32:46.494Z,9.10
2018-10-21T06:35:13.716Z,9.20
2018-10-21T06:37:40.944Z,9.20
2018-10-21T06:40:09.780Z,9.20
2018-10-21T06:42:38.113Z,9.30
2018-10-21T06:45:06.484Z,9.30
2018-10-21T06:47:33.741Z,9.40
2018-10-21T06:50:00.952Z,9.50
2018-10-21T06:52:28.221Z,9.40
2018-10-21T06:54:55.452Z,9.50
2018-10-21T06:57:23.471Z,9.60
2018-10-21T06:59:50.680Z,9.70
2018-10-21T07:02:17.947Z,9.70
2018-10-21T07:04:45.201Z,9.70
2018-10-21T07:07:12.441Z,9.70
2018-10-21T07:09:39.660Z,9.70
2018-10-21T07:12:06.896Z,9.70
2018-10-21T07:17:07.050Z,9.90
2018-10-21T07:19:34.272Z,9.80
2018-10-21T07:22:01.557Z,10.00
2018-10-21T07:24:28.756Z,10.10
2018-10-21T07:26:56.029Z,10.10
2018-10-21T07:29:23.268Z,10.40
2018-10-21T07:31:56.284Z,10.50
2018-10-21T07:34:23.517Z,10.60
2018-10-21T07:36:50.764Z,10.60
2018-10-21T07:39:18.020Z,10.60
2018-10-21T07:41:45.288Z,10.70
2018-10-21T07:46:45.568Z,10.60
2018-10-21T07:49:12.849Z,10.70
2018-10-21T07:51:40.048Z,10.80
2018-10-21T07:54:07.988Z,10.70
2018-10-21T07:56:47.021Z,10.50
2018-10-21T07:59:14.456Z,10.80
2018-10-21T08:01:47.317Z,10.80
2018-10-21T08:04:14.635Z,10.90
2018-10-21T08:06:53.532Z,11.00
2018-10-21T08:09:26.506Z,11.00
2018-10-21T08:11:53.705Z,11.10
2018-10-21T08:14:20.985Z,11.10
2018-10-21T08:16:48.213Z,11.20
2018-10-21T08:24:21.412Z,11.40
2018-10-21T08:26:54.408Z,11.60
2018-10-21T08:29:21.615Z,11.60
2018-10-21T08:31:48.854Z,11.80
2018-10-21T08:34:16.182Z,11.80
2018-10-21T08:36:43.311Z,12.00
2018-10-21T08:41:43.438Z,11.90
2018-10-21T08:44:10.688Z,11.80
2018-10-21T08:46:39.014Z,11.60
2018-10-21T08:49:06.313Z,11.50
2018-10-21T08:51:33.492Z,11.60
2018-10-21T08:54:00.735Z,11.80
2018-10-21T08:56:27.981Z,11.90
2018-10-21T08:58:55.700Z,12.00
2018-10-21T09:01:28.652Z,11.80
2018-10-21T09:03:55.882Z,12.00
2018-10-21T09:06:23.113Z,12.10
2018-10-21T09:08:50.374Z,11.90
2018-10-21T09:11:17.576Z,11.70
2018-10-21T09:13:44.808Z,11.90
2018-10-21T09:16:12.592Z,12.10
2018-10-21T09:18:39.734Z,12.50
2018-10-21T09:21:06.952Z,12.70
2018-10-21T09:23:34.156Z,12.90
2018-10-21T09:26:01.730Z,13.10
2018-10-21T09:28:32.952Z,13.30
2018-10-21T09:31:00.242Z,13.30
2018-10-21T09:33:30.457Z,13.40
2018-10-21T09:35:57.602Z,13.60
2018-10-21T09:38:24.852Z,13.50
2018-10-21T09:40:52.052Z,13.50
2018-10-21T09:43:19.288Z,13.40
2018-10-21T09:45:46.525Z,13.30
2018-10-21T09:48:13.748Z,13.20
2018-10-21T09:50:46.664Z,13.20
2018-10-21T09:53:19.624Z,13.20
2018-10-21T09:55:46.845Z,13.60
2018-10-21T09:58:14.126Z,13.70
2018-10-21T10:00:47.108Z,13.80
2018-10-21T10:03:14.324Z,13.90
2018-10-21T10:05:42.980Z,13.90
2018-10-21T10:08:10.224Z,14.00
2018-10-21T10:10:43.161Z,13.80
2018-10-21T10:13:10.466Z,13.50
2018-10-21T10:15:38.704Z,13.40
2018-10-21T10:18:11.652Z,13.80
2018-10-21T10:20:50.534Z,14.10
2018-10-21T10:23:17.814Z,14.40
2018-10-21T10:25:45.048Z,14.90
2018-10-21T10:28:12.400Z,15.30
2018-10-21T10:30:39.615Z,15.50
2018-10-21T10:33:06.865Z,15.60
2018-10-21T10:38:08.005Z,16.00
2018-10-21T10:40:35.229Z,15.80
2018-10-21T10:43:02.462Z,15.40
2018-10-21T10:45:29.720Z,15.30
2018-10-21T10:47:56.932Z,15.40
2018-10-21T10:50:24.196Z,15.50
2018-10-21T10:52:51.481Z,15.60
2018-10-21T10:55:18.743Z,15.70
2018-10-21T10:57:47.004Z,15.70
2018-10-21T11:00:14.317Z,15.50
2018-10-21T11:02:41.664Z,15.20
2018-10-21T11:05:09.628Z,15.20
2018-10-21T11:10:10.121Z,15.10
2018-10-21T11:12:43.029Z,15.20
2018-10-21T11:17:43.209Z,15.30
2018-10-21T11:22:54.929Z,15.30
2018-10-21T11:27:55.403Z,15.10
2018-10-21T11:30:23.709Z,15.10
2018-10-21T11:35:29.717Z,15.80
2018-10-21T11:37:56.967Z,16.20
2018-10-21T11:40:24.184Z,16.00
2018-10-21T11:42:51.420Z,16.00
2018-10-21T11:45:19.230Z,16.10
2018-10-21T11:47:52.282Z,16.20
2018-10-21T11:50:25.233Z,15.90
2018-10-21T11:52:52.474Z,15.60
2018-10-21T11:55:19.729Z,15.80
2018-10-21T11:57:46.979Z,15.80
2018-10-21T12:00:14.232Z,15.90
2018-10-21T12:05:14.652Z,16.00
2018-10-21T12:07:41.849Z,16.20
2018-10-21T12:10:09.521Z,16.50
2018-10-21T12:12:36.770Z,16.80
2018-10-21T12:15:04.493Z,16.70
2018-10-21T12:17:43.344Z,16.90
2018-10-21T12:20:10.549Z,16.90
2018-10-21T12:22:37.811Z,16.50
2018-10-21T12:25:05.504Z,15.90
2018-10-21T12:27:32.616Z,15.50
2018-10-21T12:29:59.817Z,15.20
2018-10-21T12:32:27.937Z,15.00
2018-10-21T12:34:55.242Z,15.20
2018-10-21T12:37:22.425Z,15.30
2018-10-21T12:39:49.804Z,15.10
2018-10-21T12:42:17.014Z,15.10
2018-10-21T12:44:44.292Z,14.90
2018-10-21T12:47:17.369Z,15.30
2018-10-21T12:49:44.555Z,16.20
2018-10-21T12:52:11.882Z,16.80
2018-10-21T12:57:12.004Z,16.40
2018-10-21T12:59:39.211Z,16.30
2018-10-21T13:02:06.488Z,16.40
2018-10-21T13:04:34.100Z,16.30
2018-10-21T13:07:01.391Z,16.10
2018-10-21T13:09:28.600Z,15.60
2018-10-21T13:11:55.991Z,15.10
2018-10-21T13:14:23.188Z,14.60
2018-10-21T13:16:50.424Z,14.30
2018-10-21T13:19:17.727Z,14.00
2018-10-21T13:21:45.513Z,14.20
2018-10-21T13:24:18.512Z,15.10
2018-10-21T13:26:45.753Z,16.20
2018-10-21T13:29:12.977Z,16.70
2018-10-21T13:34:13.377Z,16.50
2018-10-21T13:36:40.513Z,16.10
2018-10-21T13:39:14.105Z,15.70
2018-10-21T13:44:15.320Z,16.00
2018-10-21T13:46:48.363Z,17.10
2018-10-21T13:49:15.676Z,18.20
2018-10-21T13:51:42.832Z,19.00
2018-10-21T13:54:10.056Z,19.10
2018-10-21T13:56:37.277Z,19.50
2018-10-21T13:59:04.754Z,19.80
2018-10-21T14:01:32.026Z,20.50
2018-10-21T14:03:59.255Z,21.10
2018-10-21T14:06:26.499Z,21.40
2018-10-21T14:08:53.716Z,21.80
2018-10-21T14:11:21.168Z,21.90
2018-10-21T14:13:48.411Z,21.90
2018-10-21T14:16:15.794Z,22.00
2018-10-21T14:18:43.010Z,21.90
2018-10-21T14:21:16.077Z,22.00
2018-10-21T14:23:43.293Z,22.00
2018-10-21T14:26:10.701Z,22.10
2018-10-21T14:28:43.780Z,21.80
2018-10-21T14:31:11.009Z,21.90
2018-10-21T14:33:46.603Z,21.60
2018-10-21T14:36:14.224Z,21.30
2018-10-21T14:38:41.394Z,21.50
2018-10-21T14:41:08.638Z,21.30
2018-10-21T14:46:08.906Z,21.80
2018-10-21T14:48:36.084Z,21.70
2018-10-21T14:53:36.609Z,21.50
2018-10-21T14:56:09.673Z,21.50
2018-10-21T14:58:37.461Z,21.60
2018-10-21T15:01:04.833Z,22.00
2018-10-21T15:03:32.355Z,22.20
2018-10-21T15:06:00.360Z,22.40
2018-10-21T15:08:27.584Z,22.40
2018-10-21T15:10:54.810Z,22.10
2018-10-21T15:13:22.032Z,21.40
2018-10-21T15:15:49.286Z,20.30
2018-10-21T15:18:16.537Z,19.30
2018-10-21T15:20:43.793Z,18.40
2018-10-21T15:23:16.805Z,17.90
2018-10-21T15:25:44.993Z,17.70
2018-10-21T15:28:12.319Z,17.80
2018-10-21T15:30:45.086Z,18.50
2018-10-21T15:33:12.360Z,19.20
2018-10-21T15:35:39.555Z,19.50
2018-10-21T15:38:06.910Z,19.70
2018-10-21T15:40:34.077Z,19.80
2018-10-21T15:43:01.291Z,19.60
2018-10-21T15:45:28.502Z,19.70
2018-10-21T15:47:56.673Z,19.70
2018-10-21T15:50:23.930Z,19.60
2018-10-21T15:52:51.190Z,19.60
2018-10-21T15:55:24.130Z,18.90
2018-10-21T15:57:57.046Z,18.30
2018-10-21T16:00:24.264Z,17.40
2018-10-21T16:02:51.537Z,16.50
2018-10-21T16:05:18.761Z,15.80
2018-10-21T16:07:46.040Z,15.10
2018-10-21T16:10:13.294Z,14.60
2018-10-21T16:12:40.508Z,14.00
2018-10-21T16:15:15.224Z,13.50
2018-10-21T16:17:48.228Z,13.10
2018-10-21T16:20:16.123Z,12.60
2018-10-21T16:22:43.973Z,11.70
2018-10-21T16:25:12.512Z,10.90
2018-10-21T16:27:40.234Z,10.40
2018-10-21T16:30:09.407Z,10.20
2018-10-21T16:32:36.791Z,10.00
2018-10-21T16:35:05.308Z,9.70
2018-10-21T16:37:35.518Z,9.60
2018-10-21T16:40:14.463Z,9.60
2018-10-21T16:42:47.655Z,9.50
2018-10-21T16:45:15.176Z,9.50
2018-10-21T16:47:49.281Z,9.40
2018-10-21T16:50:16.708Z,9.20
2018-10-21T16:52:44.905Z,9.00
2018-10-21T16:55:12.753Z,8.70
2018-10-21T16:57:45.691Z,8.50
2018-10-21T17:00:18.786Z,8.30
2018-10-21T17:02:51.953Z,8.10
2018-10-21T17:05:19.201Z,8.00
2018-10-21T17:07:52.164Z,8.00
2018-10-21T17:10:31.504Z,8.00
2018-10-21T17:12:58.442Z,8.00
2018-10-21T17:15:25.662Z,8.00
2018-10-21T17:17:52.937Z,8.00
2018-10-21T17:20:20.189Z,8.00
2018-10-21T17:22:47.429Z,7.90
2018-10-21T17:25:20.500Z,8.00
2018-10-21T17:27:48.420Z,8.00
2018-10-21T17:30:21.573Z,8.00
2018-10-21T17:32:48.776Z,8.00
2018-10-21T17:35:15.997Z,7.90
2018-10-21T17:37:43.267Z,7.90
2018-10-21T17:40:11.427Z,7.80
2018-10-21T17:42:38.772Z,7.80
2018-10-21T17:45:07.949Z,7.70
2018-10-21T17:47:35.208Z,7.60
2018-10-21T17:50:02.486Z,7.50
2018-10-21T17:52:36.135Z,7.50
2018-10-21T17:55:03.618Z,7.50
2018-10-21T17:57:30.844Z,7.30
2018-10-21T17:59:58.268Z,7.30
2018-10-21T18:02:25.542Z,7.30
2018-10-21T18:04:53.244Z,7.20
2018-10-21T18:07:20.537Z,7.30
2018-10-21T18:09:47.779Z,7.20
2018-10-21T18:12:15.034Z,7.20
2018-10-21T18:14:42.728Z,7.20
2018-10-21T18:17:09.988Z,7.00
2018-10-21T18:19:37.589Z,6.90
2018-10-21T18:22:05.118Z,6.80
2018-10-21T18:24:32.537Z,6.60
2018-10-21T18:26:59.764Z,6.70
2018-10-21T18:29:27.246Z,6.70
2018-10-21T18:31:54.490Z,6.60
2018-10-21T18:34:21.789Z,6.60
2018-10-21T18:36:49.009Z,6.60
2018-10-21T18:39:16.283Z,6.60
2018-10-21T18:41:43.485Z,6.60
2018-10-21T18:44:10.728Z,6.60
2018-10-21T18:46:37.988Z,6.60
2018-10-21T18:49:05.860Z,6.50
2018-10-21T18:51:33.158Z,6.40
2018-10-21T18:54:01.413Z,6.40
2018-10-21T18:56:28.636Z,6.30
2018-10-21T18:58:56.989Z,6.20
2018-10-21T19:01:24.229Z,6.20
2018-10-21T19:03:51.489Z,6.20
2018-10-21T19:06:18.733Z,6.20
2018-10-21T19:08:45.988Z,6.30
2018-10-21T19:11:13.274Z,6.30
2018-10-21T19:13:40.567Z,6.40
2018-10-21T19:16:07.905Z,6.40
2018-10-21T19:18:35.064Z,6.40
2018-10-21T19:21:02.337Z,6.40
2018-10-21T19:23:29.553Z,6.40
2018-10-21T19:25:56.804Z,6.40
2018-10-21T19:28:24.033Z,6.40
2018-10-21T19:30:51.272Z,6.40
2018-10-21T19:33:18.524Z,6.50
2018-10-21T19:35:45.776Z,6.60
2018-10-21T19:38:13.165Z,6.60
2018-10-21T19:40:40.357Z,6.60
2018-10-21T19:43:07.610Z,6.50
2018-10-21T19:45:34.834Z,6.60
2018-10-21T19:48:02.052Z,6.70
2018-10-21T19:50:29.294Z,6.80
2018-10-21T19:52:56.562Z,6.60
2018-10-21T19:55:23.804Z,6.70
2018-10-21T19:57:51.033Z,6.60
2018-10-21T20:00:18.330Z,6.60
2018-10-21T20:02:45.788Z,6.50
2018-10-21T20:05:13.140Z,6.50
2018-10-21T20:07:40.549Z,6.50
2018-10-21T20:10:09.779Z,6.50
2018-10-21T20:12:37.157Z,6.50
2018-10-21T20:15:05.205Z,6.50
2018-10-21T20:17:32.443Z,6.50
2018-10-21T20:19:59.676Z,6.40
2018-10-21T20:22:27.982Z,6.40
2018-10-21T20:24:55.207Z,6.40
2018-10-21T20:27:22.449Z,6.50
2018-10-21T20:29:49.700Z,6.50
2018-10-21T20:32:17.632Z,6.50
2018-10-21T20:34:44.844Z,6.50
2018-10-21T20:37:12.108Z,6.70
2018-10-21T20:39:41.792Z,6.50
2018-10-21T20:42:09.170Z,6.50
2018-10-21T20:44:36.363Z,6.50
2018-10-21T20:47:03.581Z,6.60
2018-10-21T20:49:30.789Z,6.50
2018-10-21T20:51:58.062Z,6.50
2018-10-21T20:54:29.888Z,6.40
2018-10-21T20:56:59.758Z,6.40
2018-10-21T20:59:27.004Z,6.50
2018-10-21T21:01:54.219Z,6.50
2018-10-21T21:04:21.473Z,6.50
2018-10-21T21:06:48.673Z,6.50
2018-10-21T21:09:15.880Z,6.40
2018-10-21T21:11:43.088Z,6.30
2018-10-21T21:14:10.309Z,6.30
2018-10-21T21:16:37.541Z,6.20
2018-10-21T21:19:04.848Z,6.30
2018-10-21T21:21:32.069Z,6.30
2018-10-21T21:23:59.367Z,6.40
2018-10-21T21:26:26.584Z,6.40
2018-10-21T21:28:53.813Z,6.40
2018-10-21T21:31:21.025Z,6.30
2018-10-21T21:33:48.282Z,6.40
2018-10-21T21:36:15.544Z,6.40
2018-10-21T21:38:42.681Z,6.30
2018-10-21T21:41:09.961Z,6.40
2018-10-21T21:43:37.205Z,6.30
2018-10-21T21:46:04.690Z,6.30
2018-10-21T21:48:31.864Z,6.30
2018-10-21T21:50:59.112Z,6.20
2018-10-21T21:53:26.327Z,6.30
2018-10-21T21:55:53.608Z,6.20
2018-10-21T21:58:20.837Z,6.20
2018-10-21T22:00:48.046Z,6.10
2018-10-21T22:03:15.262Z,6.10
2018-10-21T22:05:42.467Z,6.00
2018-10-21T22:08:09.675Z,6.00
2018-10-21T22:10:36.899Z,6.10
2018-10-21T22:13:04.296Z,6.20
2018-10-21T22:15:31.500Z,6.00
2018-10-21T22:17:58.736Z,6.10
2018-10-21T22:20:25.958Z,6.10
2018-10-21T22:22:53.159Z,6.20
2018-10-21T22:25:20.388Z,6.10
2018-10-21T22:27:47.604Z,6.10
2018-10-21T22:30:14.864Z,6.00
2018-10-21T22:32:42.020Z,6.10
2018-10-21T22:35:09.601Z,6.10
2018-10-21T22:37:37.072Z,6.10
2018-10-21T22:40:04.686Z,6.20
2018-10-21T22:42:31.841Z,6.30
2018-10-21T22:44:59.042Z,6.30
2018-10-21T22:47:26.329Z,6.30
2018-10-21T22:49:53.540Z,6.20
2018-10-21T22:52:20.800Z,6.20
2018-10-21T22:54:48.015Z,6.40
2018-10-21T22:57:16.828Z,6.20
2018-10-21T22:59:44.805Z,6.30
2018-10-21T23:02:12.288Z,6.20
2018-10-21T23:04:39.509Z,6.20
2018-10-21T23:07:06.710Z,6.20
2018-10-21T23:09:33.937Z,6.10
2018-10-21T23:12:01.320Z,6.10
2018-10-21T23:14:28.620Z,6.00
2018-10-21T23:16:55.856Z,6.00
2018-10-21T23:19:45.460Z,5.90
2018-10-21T23:22:12.742Z,5.90
2018-10-21T23:24:40.465Z,5.80
2018-10-21T23:27:08.424Z,5.70
2018-10-21T23:29:35.652Z,5.70
2018-10-21T23:32:02.879Z,5.70
2018-10-21T23:34:30.110Z,5.60
2018-10-21T23:36:57.344Z,5.50
2018-10-21T23:39:25.005Z,5.50
2018-10-21T23:41:52.213Z,5.30
2018-10-21T23:44:20.456Z,5.30
2018-10-21T23:46:48.200Z,5.20
2018-10-21T23:49:15.536Z,5.20
2018-10-21T23:51:42.748Z,5.00
2018-10-21T23:54:10.028Z,5.00
2018-10-21T23:56:37.397Z,6.00
2018-10-21T23:59:05.589Z,4.90
